createdAt,value
2023-05-12T00:12:25.669Z,0
2023-05-12T00:27:25.652Z,0
2023-05-12T00:42:25.612Z,0
2023-05-12T00:57:25.580Z,0
2023-05-12T01:12:25.560Z,0
2023-05-12T01:27:25.405Z,0
2023-05-12T01:42:25.503Z,0
2023-05-12T01:57:25.604Z,0
2023-05-12T02:12:25.519Z,0
2023-05-12T02:27:25.701Z,0
2023-05-12T02:42:25.450Z,0
2023-05-12T02:57:25.415Z,0.01
2023-05-12T03:12:25.513Z,0.06
2023-05-12T03:27:25.277Z,13.83
2023-05-12T03:42:25.400Z,3.17
2023-05-12T03:57:25.576Z,1.54
2023-05-12T04:12:25.647Z,1.65
2023-05-12T04:27:25.550Z,0.16
2023-05-12T04:42:25.676Z,0.84
2023-05-12T04:57:25.447Z,3.76
2023-05-12T05:12:25.759Z,1.57
2023-05-12T05:27:25.579Z,2.03
2023-05-12T05:42:25.926Z,3.18
2023-05-12T05:57:25.808Z,3.28
2023-05-12T06:12:25.739Z,3.31
2023-05-12T06:27:26.176Z,2.51
2023-05-12T06:42:25.921Z,1.19
2023-05-12T06:57:25.853Z,0.79
2023-05-12T07:12:26.271Z,0.16
2023-05-12T07:27:25.676Z,0.06
2023-05-12T07:42:25.985Z,0.03
2023-05-12T07:57:26.064Z,0.07
2023-05-12T08:12:25.847Z,2.95
2023-05-12T08:27:25.639Z,0.39
2023-05-12T08:42:25.438Z,0.44
2023-05-12T08:57:26.882Z,0.69
2023-05-12T09:12:25.636Z,1.06
2023-05-12T09:27:25.793Z,0.11
2023-05-12T09:42:25.807Z,0.02
2023-05-12T09:57:25.755Z,0
2023-05-12T10:12:25.457Z,0.01
2023-05-12T10:42:25.859Z,0
2023-05-12T10:57:25.927Z,0.06
2023-05-12T11:12:25.562Z,0
2023-05-12T11:27:25.476Z,0.01
2023-05-12T11:42:26.096Z,0
2023-05-12T11:57:25.591Z,0
2023-05-12T12:12:25.223Z,0.03
2023-05-12T12:27:25.695Z,0
2023-05-12T12:42:26.047Z,0
2023-05-12T12:57:25.727Z,0
2023-05-12T13:12:25.340Z,0
2023-05-12T13:27:25.820Z,0
2023-05-12T13:42:25.476Z,0
2023-05-12T13:57:25.836Z,0
2023-05-12T14:12:25.495Z,0.16
2023-05-12T14:27:26.094Z,0
2023-05-12T14:42:25.600Z,5.88
2023-05-12T14:57:25.259Z,0.08
2023-05-12T15:12:25.305Z,0.55
2023-05-12T15:27:26.033Z,0.16
2023-05-12T15:42:29.914Z,2.45
2023-05-12T15:57:25.981Z,1.39
2023-05-12T16:12:25.615Z,2.82
2023-05-12T16:27:25.591Z,0.1
2023-05-12T16:42:25.601Z,0.78
2023-05-12T16:57:25.692Z,0.31
2023-05-12T17:12:25.857Z,0.66
2023-05-12T17:27:26.016Z,0.3
2023-05-12T17:42:25.286Z,0.35
2023-05-12T17:57:25.517Z,0.19
2023-05-12T18:12:25.631Z,0.32
2023-05-12T18:27:25.904Z,0.52
2023-05-12T18:42:26.023Z,0.71
2023-05-12T18:57:25.504Z,0.12
2023-05-12T19:12:25.645Z,0.26
2023-05-12T19:27:25.895Z,0.5
2023-05-12T19:42:25.608Z,2.45
2023-05-12T19:57:25.999Z,0.5
2023-05-12T20:12:25.417Z,0.58
2023-05-12T20:27:25.874Z,0.85
2023-05-12T20:42:25.483Z,0.95
2023-05-12T20:57:25.938Z,1.35
2023-05-12T21:12:25.689Z,3.86
2023-05-12T21:27:25.838Z,4.86
2023-05-12T21:42:25.878Z,4.73
2023-05-12T21:57:25.468Z,5.41
2023-05-12T22:12:25.195Z,6.58
2023-05-12T22:27:25.372Z,7.6
2023-05-12T22:42:25.587Z,8.22
2023-05-12T22:57:25.801Z,8.32
2023-05-12T23:12:25.848Z,8.42
2023-05-12T23:27:25.982Z,8.3
2023-05-12T23:42:25.353Z,7.84
2023-05-12T23:57:25.861Z,8.96
